sensor_id;sensor_type;location;lat;lon;timestamp;P1;durP1;ratioP1;P2;durP2;ratioP2
59788;SDS011;47353;51.614;5.530;2024-03-07T00:01:12;29.35;;;18.15;;
59788;SDS011;47353;51.614;5.530;2024-03-07T00:03:38;38.85;;;22.42;;
59788;SDS011;47353;51.614;5.530;2024-03-07T00:06:04;32.58;;;19.80;;
59788;SDS011;47353;51.614;5.530;2024-03-07T00:08:29;29.23;;;18.50;;
59788;SDS011;47353;51.614;5.530;2024-03-07T00:10:55;26.65;;;17.23;;
59788;SDS011;47353;51.614;5.530;2024-03-07T00:13:21;26.23;;;16.60;;
59788;SDS011;47353;51.614;5.530;2024-03-07T00:15:46;24.73;;;16.50;;
59788;SDS011;47353;51.614;5.530;2024-03-07T00:18:12;33.83;;;19.27;;
59788;SDS011;47353;51.614;5.530;2024-03-07T00:20:40;29.23;;;17.77;;
59788;SDS011;47353;51.614;5.530;2024-03-07T00:23:05;25.50;;;16.27;;
59788;SDS011;47353;51.614;5.530;2024-03-07T00:25:31;27.02;;;17.02;;
59788;SDS011;47353;51.614;5.530;2024-03-07T00:27:57;29.85;;;17.98;;
59788;SDS011;47353;51.614;5.530;2024-03-07T00:30:27;28.25;;;17.42;;
59788;SDS011;47353;51.614;5.530;2024-03-07T00:32:54;32.25;;;19.20;;
59788;SDS011;47353;51.614;5.530;2024-03-07T00:35:22;26.83;;;17.77;;
59788;SDS011;47353;51.614;5.530;2024-03-07T00:37:48;32.45;;;19.48;;
59788;SDS011;47353;51.614;5.530;2024-03-07T00:40:14;28.52;;;17.05;;
59788;SDS011;47353;51.614;5.530;2024-03-07T00:42:39;26.05;;;15.82;;
59788;SDS011;47353;51.614;5.530;2024-03-07T00:45:05;24.95;;;15.90;;
59788;SDS011;47353;51.614;5.530;2024-03-07T00:47:31;30.48;;;18.17;;
59788;SDS011;47353;51.614;5.530;2024-03-07T00:49:57;30.10;;;17.60;;
59788;SDS011;47353;51.614;5.530;2024-03-07T00:52:23;28.00;;;16.63;;
59788;SDS011;47353;51.614;5.530;2024-03-07T00:54:48;26.85;;;17.05;;
59788;SDS011;47353;51.614;5.530;2024-03-07T00:57:14;30.83;;;18.77;;
59788;SDS011;47353;51.614;5.530;2024-03-07T00:59:40;35.40;;;19.88;;
59788;SDS011;47353;51.614;5.530;2024-03-07T01:02:05;30.20;;;18.48;;
59788;SDS011;47353;51.614;5.530;2024-03-07T01:04:32;34.78;;;20.58;;
59788;SDS011;47353;51.614;5.530;2024-03-07T01:06:58;33.15;;;20.17;;
59788;SDS011;47353;51.614;5.530;2024-03-07T01:09:27;37.38;;;22.35;;
59788;SDS011;47353;51.614;5.530;2024-03-07T01:11:53;30.08;;;18.42;;
59788;SDS011;47353;51.614;5.530;2024-03-07T01:14:20;29.85;;;18.63;;
59788;SDS011;47353;51.614;5.530;2024-03-07T01:16:45;34.55;;;19.90;;
59788;SDS011;47353;51.614;5.530;2024-03-07T01:19:13;30.35;;;18.42;;
59788;SDS011;47353;51.614;5.530;2024-03-07T01:21:39;35.70;;;21.08;;
59788;SDS011;47353;51.614;5.530;2024-03-07T01:24:05;34.85;;;20.48;;
59788;SDS011;47353;51.614;5.530;2024-03-07T01:26:31;33.85;;;20.02;;
59788;SDS011;47353;51.614;5.530;2024-03-07T01:28:59;38.15;;;21.95;;
59788;SDS011;47353;51.614;5.530;2024-03-07T01:31:25;37.58;;;21.73;;
59788;SDS011;47353;51.614;5.530;2024-03-07T01:33:51;37.78;;;21.90;;
59788;SDS011;47353;51.614;5.530;2024-03-07T01:36:18;40.83;;;22.70;;
59788;SDS011;47353;51.614;5.530;2024-03-07T01:38:44;40.63;;;23.05;;
59788;SDS011;47353;51.614;5.530;2024-03-07T01:41:09;33.83;;;20.48;;
59788;SDS011;47353;51.614;5.530;2024-03-07T01:43:35;31.33;;;18.25;;
59788;SDS011;47353;51.614;5.530;2024-03-07T01:46:01;37.25;;;21.33;;
59788;SDS011;47353;51.614;5.530;2024-03-07T01:48:28;37.15;;;20.52;;
59788;SDS011;47353;51.614;5.530;2024-03-07T01:50:56;37.55;;;20.88;;
59788;SDS011;47353;51.614;5.530;2024-03-07T01:53:23;38.08;;;21.98;;
59788;SDS011;47353;51.614;5.530;2024-03-07T01:55:50;40.25;;;23.55;;
59788;SDS011;47353;51.614;5.530;2024-03-07T01:58:18;38.42;;;22.00;;
59788;SDS011;47353;51.614;5.530;2024-03-07T02:00:45;32.70;;;19.35;;
59788;SDS011;47353;51.614;5.530;2024-03-07T02:03:11;35.83;;;20.17;;
59788;SDS011;47353;51.614;5.530;2024-03-07T02:05:39;40.95;;;22.50;;
59788;SDS011;47353;51.614;5.530;2024-03-07T02:08:05;43.40;;;23.08;;
59788;SDS011;47353;51.614;5.530;2024-03-07T02:10:30;41.55;;;22.83;;
59788;SDS011;47353;51.614;5.530;2024-03-07T02:12:56;38.78;;;21.42;;
59788;SDS011;47353;51.614;5.530;2024-03-07T02:15:21;43.20;;;23.45;;
59788;SDS011;47353;51.614;5.530;2024-03-07T02:17:47;42.20;;;24.25;;
59788;SDS011;47353;51.614;5.530;2024-03-07T02:20:12;42.95;;;24.10;;
59788;SDS011;47353;51.614;5.530;2024-03-07T02:22:38;45.03;;;24.77;;
59788;SDS011;47353;51.614;5.530;2024-03-07T02:25:04;38.80;;;22.38;;
59788;SDS011;47353;51.614;5.530;2024-03-07T02:27:32;37.40;;;21.52;;
59788;SDS011;47353;51.614;5.530;2024-03-07T02:29:57;37.70;;;21.30;;
59788;SDS011;47353;51.614;5.530;2024-03-07T02:32:23;36.17;;;20.33;;
59788;SDS011;47353;51.614;5.530;2024-03-07T02:34:48;35.45;;;19.88;;
59788;SDS011;47353;51.614;5.530;2024-03-07T02:37:14;40.33;;;22.20;;
59788;SDS011;47353;51.614;5.530;2024-03-07T02:39:39;43.35;;;23.95;;
59788;SDS011;47353;51.614;5.530;2024-03-07T02:42:05;42.97;;;23.80;;
59788;SDS011;47353;51.614;5.530;2024-03-07T02:44:31;39.17;;;21.65;;
59788;SDS011;47353;51.614;5.530;2024-03-07T02:46:57;44.25;;;23.00;;
59788;SDS011;47353;51.614;5.530;2024-03-07T02:49:23;41.70;;;23.63;;
59788;SDS011;47353;51.614;5.530;2024-03-07T02:51:48;41.20;;;23.67;;
59788;SDS011;47353;51.614;5.530;2024-03-07T02:54:14;52.72;;;27.60;;
59788;SDS011;47353;51.614;5.530;2024-03-07T02:56:39;50.92;;;27.42;;
59788;SDS011;47353;51.614;5.530;2024-03-07T02:59:05;45.65;;;24.98;;
59788;SDS011;47353;51.614;5.530;2024-03-07T03:01:31;49.78;;;27.08;;
59788;SDS011;47353;51.614;5.530;2024-03-07T03:03:57;48.00;;;26.45;;
59788;SDS011;47353;51.614;5.530;2024-03-07T03:06:23;45.33;;;24.98;;
59788;SDS011;47353;51.614;5.530;2024-03-07T03:08:48;44.45;;;24.67;;
59788;SDS011;47353;51.614;5.530;2024-03-07T03:11:14;42.15;;;23.27;;
59788;SDS011;47353;51.614;5.530;2024-03-07T03:13:42;39.08;;;22.83;;
59788;SDS011;47353;51.614;5.530;2024-03-07T03:16:08;46.45;;;26.00;;
59788;SDS011;47353;51.614;5.530;2024-03-07T03:21:19;46.05;;;24.35;;
59788;SDS011;47353;51.614;5.530;2024-03-07T03:23:44;50.40;;;26.23;;
59788;SDS011;47353;51.614;5.530;2024-03-07T03:26:10;57.53;;;30.40;;
59788;SDS011;47353;51.614;5.530;2024-03-07T03:28:35;50.63;;;26.70;;
59788;SDS011;47353;51.614;5.530;2024-03-07T03:31:01;47.38;;;26.65;;
59788;SDS011;47353;51.614;5.530;2024-03-07T03:33:26;47.45;;;26.33;;
59788;SDS011;47353;51.614;5.530;2024-03-07T03:35:52;44.78;;;24.75;;
59788;SDS011;47353;51.614;5.530;2024-03-07T03:38:20;42.42;;;23.85;;
59788;SDS011;47353;51.614;5.530;2024-03-07T03:40:46;40.40;;;22.92;;
59788;SDS011;47353;51.614;5.530;2024-03-07T03:43:11;37.60;;;21.63;;
59788;SDS011;47353;51.614;5.530;2024-03-07T03:45:37;51.03;;;26.33;;
59788;SDS011;47353;51.614;5.530;2024-03-07T03:48:02;49.33;;;26.20;;
59788;SDS011;47353;51.614;5.530;2024-03-07T03:50:28;43.05;;;24.33;;
59788;SDS011;47353;51.614;5.530;2024-03-07T03:52:54;43.30;;;24.17;;
59788;SDS011;47353;51.614;5.530;2024-03-07T03:55:20;44.40;;;23.42;;
59788;SDS011;47353;51.614;5.530;2024-03-07T03:57:45;41.58;;;23.23;;
59788;SDS011;47353;51.614;5.530;2024-03-07T04:00:12;45.97;;;24.50;;
59788;SDS011;47353;51.614;5.530;2024-03-07T04:02:41;48.60;;;25.67;;
59788;SDS011;47353;51.614;5.530;2024-03-07T04:05:08;45.35;;;24.35;;
59788;SDS011;47353;51.614;5.530;2024-03-07T04:07:35;44.33;;;25.77;;
59788;SDS011;47353;51.614;5.530;2024-03-07T04:10:01;41.45;;;23.77;;
59788;SDS011;47353;51.614;5.530;2024-03-07T04:12:36;39.72;;;22.30;;
59788;SDS011;47353;51.614;5.530;2024-03-07T04:15:04;38.70;;;22.55;;
59788;SDS011;47353;51.614;5.530;2024-03-07T04:17:32;43.47;;;24.38;;
59788;SDS011;47353;51.614;5.530;2024-03-07T04:20:02;38.53;;;22.25;;
59788;SDS011;47353;51.614;5.530;2024-03-07T04:22:32;38.90;;;21.17;;
59788;SDS011;47353;51.614;5.530;2024-03-07T04:24:58;35.45;;;21.05;;
59788;SDS011;47353;51.614;5.530;2024-03-07T04:27:24;43.00;;;24.27;;
59788;SDS011;47353;51.614;5.530;2024-03-07T04:29:51;43.40;;;24.05;;
59788;SDS011;47353;51.614;5.530;2024-03-07T04:32:16;43.55;;;24.15;;
59788;SDS011;47353;51.614;5.530;2024-03-07T04:34:42;40.00;;;23.27;;
59788;SDS011;47353;51.614;5.530;2024-03-07T04:37:08;49.28;;;26.13;;
59788;SDS011;47353;51.614;5.530;2024-03-07T04:39:34;47.45;;;26.25;;
59788;SDS011;47353;51.614;5.530;2024-03-07T04:42:00;42.88;;;24.75;;
59788;SDS011;47353;51.614;5.530;2024-03-07T04:44:27;45.88;;;24.98;;
59788;SDS011;47353;51.614;5.530;2024-03-07T04:46:53;44.50;;;24.20;;
59788;SDS011;47353;51.614;5.530;2024-03-07T04:49:21;47.78;;;26.85;;
59788;SDS011;47353;51.614;5.530;2024-03-07T04:51:48;48.50;;;25.55;;
59788;SDS011;47353;51.614;5.530;2024-03-07T04:54:14;41.63;;;23.27;;
59788;SDS011;47353;51.614;5.530;2024-03-07T04:56:40;37.13;;;21.15;;
59788;SDS011;47353;51.614;5.530;2024-03-07T04:59:06;40.47;;;22.67;;
59788;SDS011;47353;51.614;5.530;2024-03-07T05:01:31;43.70;;;23.65;;
59788;SDS011;47353;51.614;5.530;2024-03-07T05:03:57;40.63;;;22.58;;
59788;SDS011;47353;51.614;5.530;2024-03-07T05:06:22;46.75;;;24.88;;
59788;SDS011;47353;51.614;5.530;2024-03-07T05:08:47;50.28;;;28.02;;
59788;SDS011;47353;51.614;5.530;2024-03-07T05:11:13;45.17;;;24.35;;
59788;SDS011;47353;51.614;5.530;2024-03-07T05:13:38;41.20;;;22.88;;
59788;SDS011;47353;51.614;5.530;2024-03-07T05:16:07;42.45;;;23.60;;
59788;SDS011;47353;51.614;5.530;2024-03-07T05:18:33;42.45;;;24.40;;
59788;SDS011;47353;51.614;5.530;2024-03-07T05:20:58;50.88;;;27.42;;
59788;SDS011;47353;51.614;5.530;2024-03-07T05:23:43;45.05;;;24.88;;
59788;SDS011;47353;51.614;5.530;2024-03-07T05:26:09;42.90;;;24.55;;
59788;SDS011;47353;51.614;5.530;2024-03-07T05:28:35;43.17;;;23.38;;
59788;SDS011;47353;51.614;5.530;2024-03-07T05:31:01;40.53;;;22.95;;
59788;SDS011;47353;51.614;5.530;2024-03-07T05:33:29;43.85;;;25.02;;
59788;SDS011;47353;51.614;5.530;2024-03-07T05:35:54;41.97;;;24.23;;
59788;SDS011;47353;51.614;5.530;2024-03-07T05:40:53;45.55;;;24.65;;
59788;SDS011;47353;51.614;5.530;2024-03-07T05:43:19;49.25;;;26.88;;
59788;SDS011;47353;51.614;5.530;2024-03-07T05:45:44;51.05;;;27.67;;
59788;SDS011;47353;51.614;5.530;2024-03-07T05:48:16;45.20;;;24.50;;
59788;SDS011;47353;51.614;5.530;2024-03-07T05:50:42;58.73;;;29.00;;
59788;SDS011;47353;51.614;5.530;2024-03-07T05:53:07;48.88;;;26.38;;
59788;SDS011;47353;51.614;5.530;2024-03-07T05:55:33;45.78;;;24.48;;
59788;SDS011;47353;51.614;5.530;2024-03-07T05:57:58;47.63;;;25.65;;
59788;SDS011;47353;51.614;5.530;2024-03-07T06:00:23;44.60;;;25.15;;
59788;SDS011;47353;51.614;5.530;2024-03-07T06:02:53;45.35;;;24.20;;
59788;SDS011;47353;51.614;5.530;2024-03-07T06:05:18;45.55;;;25.17;;
59788;SDS011;47353;51.614;5.530;2024-03-07T06:07:44;44.75;;;24.77;;
59788;SDS011;47353;51.614;5.530;2024-03-07T06:10:12;51.45;;;27.38;;
59788;SDS011;47353;51.614;5.530;2024-03-07T06:12:38;45.85;;;25.35;;
59788;SDS011;47353;51.614;5.530;2024-03-07T06:15:10;40.13;;;22.53;;
59788;SDS011;47353;51.614;5.530;2024-03-07T06:17:37;42.58;;;23.00;;
59788;SDS011;47353;51.614;5.530;2024-03-07T06:20:02;44.72;;;24.05;;
59788;SDS011;47353;51.614;5.530;2024-03-07T06:22:28;46.13;;;25.33;;
59788;SDS011;47353;51.614;5.530;2024-03-07T06:24:54;42.55;;;23.73;;
59788;SDS011;47353;51.614;5.530;2024-03-07T06:27:19;43.00;;;24.20;;
59788;SDS011;47353;51.614;5.530;2024-03-07T06:30:02;41.03;;;22.60;;
59788;SDS011;47353;51.614;5.530;2024-03-07T06:32:28;39.20;;;22.15;;
59788;SDS011;47353;51.614;5.530;2024-03-07T06:34:53;39.00;;;21.63;;
59788;SDS011;47353;51.614;5.530;2024-03-07T06:37:19;40.72;;;22.92;;
59788;SDS011;47353;51.614;5.530;2024-03-07T06:39:44;38.03;;;21.33;;
59788;SDS011;47353;51.614;5.530;2024-03-07T06:42:09;41.58;;;21.83;;
59788;SDS011;47353;51.614;5.530;2024-03-07T06:44:35;35.45;;;20.15;;
59788;SDS011;47353;51.614;5.530;2024-03-07T06:47:00;36.40;;;20.95;;
59788;SDS011;47353;51.614;5.530;2024-03-07T06:49:26;41.80;;;22.90;;
59788;SDS011;47353;51.614;5.530;2024-03-07T06:51:53;39.92;;;21.23;;
59788;SDS011;47353;51.614;5.530;2024-03-07T06:54:19;50.50;;;27.25;;
59788;SDS011;47353;51.614;5.530;2024-03-07T06:56:46;44.35;;;26.00;;
59788;SDS011;47353;51.614;5.530;2024-03-07T06:59:12;47.08;;;26.00;;
59788;SDS011;47353;51.614;5.530;2024-03-07T07:01:39;48.63;;;27.58;;
59788;SDS011;47353;51.614;5.530;2024-03-07T07:04:08;49.58;;;26.88;;
59788;SDS011;47353;51.614;5.530;2024-03-07T07:06:33;56.03;;;31.30;;
59788;SDS011;47353;51.614;5.530;2024-03-07T07:08:59;53.58;;;29.30;;
59788;SDS011;47353;51.614;5.530;2024-03-07T07:11:27;53.67;;;29.58;;
59788;SDS011;47353;51.614;5.530;2024-03-07T07:13:53;48.47;;;28.05;;
59788;SDS011;47353;51.614;5.530;2024-03-07T07:16:18;49.47;;;28.23;;
59788;SDS011;47353;51.614;5.530;2024-03-07T07:18:44;50.00;;;28.08;;
59788;SDS011;47353;51.614;5.530;2024-03-07T07:21:10;49.63;;;29.50;;
59788;SDS011;47353;51.614;5.530;2024-03-07T07:23:35;50.40;;;29.75;;
59788;SDS011;47353;51.614;5.530;2024-03-07T07:26:01;48.22;;;28.70;;
59788;SDS011;47353;51.614;5.530;2024-03-07T07:28:27;47.70;;;29.55;;
59788;SDS011;47353;51.614;5.530;2024-03-07T07:30:52;46.30;;;28.52;;
59788;SDS011;47353;51.614;5.530;2024-03-07T07:33:18;45.65;;;27.58;;
59788;SDS011;47353;51.614;5.530;2024-03-07T07:35:44;43.30;;;27.02;;
59788;SDS011;47353;51.614;5.530;2024-03-07T07:38:10;44.17;;;25.88;;
59788;SDS011;47353;51.614;5.530;2024-03-07T07:40:37;45.97;;;27.73;;
59788;SDS011;47353;51.614;5.530;2024-03-07T07:43:03;43.20;;;27.00;;
59788;SDS011;47353;51.614;5.530;2024-03-07T07:45:29;40.42;;;25.60;;
59788;SDS011;47353;51.614;5.530;2024-03-07T07:47:57;44.42;;;27.70;;
59788;SDS011;47353;51.614;5.530;2024-03-07T07:50:24;41.53;;;26.02;;
59788;SDS011;47353;51.614;5.530;2024-03-07T07:52:50;38.40;;;25.52;;
59788;SDS011;47353;51.614;5.530;2024-03-07T07:57:51;44.30;;;27.08;;
59788;SDS011;47353;51.614;5.530;2024-03-07T08:00:19;44.38;;;27.17;;
59788;SDS011;47353;51.614;5.530;2024-03-07T08:02:56;41.15;;;27.10;;
59788;SDS011;47353;51.614;5.530;2024-03-07T08:05:44;40.65;;;26.67;;
59788;SDS011;47353;51.614;5.530;2024-03-07T08:08:12;40.47;;;27.02;;
59788;SDS011;47353;51.614;5.530;2024-03-07T08:10:41;41.22;;;26.70;;
59788;SDS011;47353;51.614;5.530;2024-03-07T08:13:07;37.05;;;25.48;;
59788;SDS011;47353;51.614;5.530;2024-03-07T08:15:36;40.17;;;26.55;;
59788;SDS011;47353;51.614;5.530;2024-03-07T08:18:01;34.20;;;23.80;;
59788;SDS011;47353;51.614;5.530;2024-03-07T08:20:33;36.83;;;25.27;;
59788;SDS011;47353;51.614;5.530;2024-03-07T08:22:59;31.63;;;23.63;;
59788;SDS011;47353;51.614;5.530;2024-03-07T08:25:26;29.48;;;21.90;;
59788;SDS011;47353;51.614;5.530;2024-03-07T08:27:54;30.08;;;22.10;;
59788;SDS011;47353;51.614;5.530;2024-03-07T08:30:21;29.95;;;21.10;;
59788;SDS011;47353;51.614;5.530;2024-03-07T08:35:20;31.83;;;22.45;;
59788;SDS011;47353;51.614;5.530;2024-03-07T08:37:47;26.13;;;20.83;;
59788;SDS011;47353;51.614;5.530;2024-03-07T08:40:18;28.40;;;21.75;;
59788;SDS011;47353;51.614;5.530;2024-03-07T08:42:45;26.75;;;21.17;;
59788;SDS011;47353;51.614;5.530;2024-03-07T08:45:20;26.52;;;20.38;;
59788;SDS011;47353;51.614;5.530;2024-03-07T08:47:47;25.95;;;20.05;;
59788;SDS011;47353;51.614;5.530;2024-03-07T08:50:14;25.27;;;19.98;;
59788;SDS011;47353;51.614;5.530;2024-03-07T08:52:41;24.67;;;20.10;;
59788;SDS011;47353;51.614;5.530;2024-03-07T08:55:08;25.13;;;19.63;;
59788;SDS011;47353;51.614;5.530;2024-03-07T08:57:37;23.67;;;19.27;;
59788;SDS011;47353;51.614;5.530;2024-03-07T09:00:03;22.42;;;18.98;;
59788;SDS011;47353;51.614;5.530;2024-03-07T09:05:24;28.58;;;20.42;;
59788;SDS011;47353;51.614;5.530;2024-03-07T09:07:51;23.30;;;19.10;;
59788;SDS011;47353;51.614;5.530;2024-03-07T09:10:17;23.05;;;18.52;;
59788;SDS011;47353;51.614;5.530;2024-03-07T09:12:43;23.95;;;18.75;;
59788;SDS011;47353;51.614;5.530;2024-03-07T09:15:10;26.98;;;20.15;;
59788;SDS011;47353;51.614;5.530;2024-03-07T09:17:36;22.30;;;18.05;;
59788;SDS011;47353;51.614;5.530;2024-03-07T09:20:02;20.75;;;17.45;;
59788;SDS011;47353;51.614;5.530;2024-03-07T09:22:31;24.20;;;18.58;;
59788;SDS011;47353;51.614;5.530;2024-03-07T09:24:59;21.70;;;16.35;;
59788;SDS011;47353;51.614;5.530;2024-03-07T09:27:24;22.77;;;17.15;;
59788;SDS011;47353;51.614;5.530;2024-03-07T09:29:53;20.35;;;16.48;;
59788;SDS011;47353;51.614;5.530;2024-03-07T09:32:19;23.08;;;17.48;;
59788;SDS011;47353;51.614;5.530;2024-03-07T09:34:47;21.02;;;17.45;;
59788;SDS011;47353;51.614;5.530;2024-03-07T09:37:12;19.77;;;16.17;;
59788;SDS011;47353;51.614;5.530;2024-03-07T09:39:38;19.50;;;15.60;;
59788;SDS011;47353;51.614;5.530;2024-03-07T09:42:07;17.27;;;14.85;;
59788;SDS011;47353;51.614;5.530;2024-03-07T09:44:38;19.75;;;16.45;;
59788;SDS011;47353;51.614;5.530;2024-03-07T09:47:07;19.95;;;16.33;;
59788;SDS011;47353;51.614;5.530;2024-03-07T09:49:33;21.38;;;17.55;;
59788;SDS011;47353;51.614;5.530;2024-03-07T09:52:04;21.08;;;16.67;;
59788;SDS011;47353;51.614;5.530;2024-03-07T09:54:33;19.38;;;16.55;;
59788;SDS011;47353;51.614;5.530;2024-03-07T09:57:03;20.30;;;16.85;;
59788;SDS011;47353;51.614;5.530;2024-03-07T09:59:32;19.80;;;16.58;;
59788;SDS011;47353;51.614;5.530;2024-03-07T10:02:00;22.00;;;17.27;;
59788;SDS011;47353;51.614;5.530;2024-03-07T10:04:42;21.25;;;16.00;;
59788;SDS011;47353;51.614;5.530;2024-03-07T10:07:13;19.38;;;14.98;;
59788;SDS011;47353;51.614;5.530;2024-03-07T10:09:43;20.70;;;16.08;;
59788;SDS011;47353;51.614;5.530;2024-03-07T10:12:10;19.92;;;16.23;;
59788;SDS011;47353;51.614;5.530;2024-03-07T10:14:50;19.50;;;16.10;;
59788;SDS011;47353;51.614;5.530;2024-03-07T10:17:16;21.17;;;16.88;;
59788;SDS011;47353;51.614;5.530;2024-03-07T10:19:46;21.05;;;16.55;;
59788;SDS011;47353;51.614;5.530;2024-03-07T10:22:14;19.63;;;15.77;;
59788;SDS011;47353;51.614;5.530;2024-03-07T10:24:45;17.45;;;14.60;;
59788;SDS011;47353;51.614;5.530;2024-03-07T10:27:17;21.38;;;16.45;;
59788;SDS011;47353;51.614;5.530;2024-03-07T10:29:44;19.02;;;15.73;;
59788;SDS011;47353;51.614;5.530;2024-03-07T10:32:12;19.50;;;16.38;;
59788;SDS011;47353;51.614;5.530;2024-03-07T10:34:38;19.30;;;16.40;;
59788;SDS011;47353;51.614;5.530;2024-03-07T10:37:04;20.33;;;16.50;;
59788;SDS011;47353;51.614;5.530;2024-03-07T10:39:30;21.08;;;15.60;;
59788;SDS011;47353;51.614;5.530;2024-03-07T10:41:56;21.15;;;16.98;;
59788;SDS011;47353;51.614;5.530;2024-03-07T10:44:30;20.45;;;17.27;;
59788;SDS011;47353;51.614;5.530;2024-03-07T10:46:57;24.33;;;16.85;;
59788;SDS011;47353;51.614;5.530;2024-03-07T10:49:25;19.40;;;16.70;;
59788;SDS011;47353;51.614;5.530;2024-03-07T10:52:06;19.10;;;15.70;;
59788;SDS011;47353;51.614;5.530;2024-03-07T10:55:04;18.20;;;15.40;;
59788;SDS011;47353;51.614;5.530;2024-03-07T10:57:51;19.77;;;15.13;;
59788;SDS011;47353;51.614;5.530;2024-03-07T11:00:22;20.05;;;15.85;;
59788;SDS011;47353;51.614;5.530;2024-03-07T11:03:01;20.75;;;16.30;;
59788;SDS011;47353;51.614;5.530;2024-03-07T11:05:32;20.20;;;16.17;;
59788;SDS011;47353;51.614;5.530;2024-03-07T11:07:59;22.02;;;15.95;;
59788;SDS011;47353;51.614;5.530;2024-03-07T11:10:36;18.67;;;14.95;;
59788;SDS011;47353;51.614;5.530;2024-03-07T11:13:03;19.75;;;15.38;;
59788;SDS011;47353;51.614;5.530;2024-03-07T11:15:31;18.20;;;15.00;;
59788;SDS011;47353;51.614;5.530;2024-03-07T11:17:59;19.20;;;15.48;;
59788;SDS011;47353;51.614;5.530;2024-03-07T11:20:25;18.50;;;15.07;;
59788;SDS011;47353;51.614;5.530;2024-03-07T11:22:51;19.02;;;14.55;;
59788;SDS011;47353;51.614;5.530;2024-03-07T11:25:21;20.58;;;15.60;;
59788;SDS011;47353;51.614;5.530;2024-03-07T11:27:50;18.00;;;14.70;;
59788;SDS011;47353;51.614;5.530;2024-03-07T11:30:24;16.38;;;13.23;;
59788;SDS011;47353;51.614;5.530;2024-03-07T11:32:50;18.95;;;15.65;;
59788;SDS011;47353;51.614;5.530;2024-03-07T11:35:20;18.50;;;14.73;;
59788;SDS011;47353;51.614;5.530;2024-03-07T11:37:59;18.30;;;14.93;;
59788;SDS011;47353;51.614;5.530;2024-03-07T11:42:53;20.23;;;15.85;;
59788;SDS011;47353;51.614;5.530;2024-03-07T11:45:25;20.85;;;15.55;;
59788;SDS011;47353;51.614;5.530;2024-03-07T11:47:52;21.83;;;16.67;;
59788;SDS011;47353;51.614;5.530;2024-03-07T11:50:36;21.73;;;16.20;;
59788;SDS011;47353;51.614;5.530;2024-03-07T11:53:03;21.88;;;17.38;;
59788;SDS011;47353;51.614;5.530;2024-03-07T11:55:33;21.95;;;16.27;;
59788;SDS011;47353;51.614;5.530;2024-03-07T12:00:43;25.17;;;16.77;;
59788;SDS011;47353;51.614;5.530;2024-03-07T12:03:13;24.08;;;16.83;;
59788;SDS011;47353;51.614;5.530;2024-03-07T12:05:42;23.50;;;16.90;;
59788;SDS011;47353;51.614;5.530;2024-03-07T12:08:09;22.52;;;15.90;;
59788;SDS011;47353;51.614;5.530;2024-03-07T12:10:36;27.02;;;17.02;;
59788;SDS011;47353;51.614;5.530;2024-03-07T12:13:08;25.38;;;17.17;;
59788;SDS011;47353;51.614;5.530;2024-03-07T12:15:36;24.17;;;16.88;;
59788;SDS011;47353;51.614;5.530;2024-03-07T12:18:03;21.25;;;15.55;;
59788;SDS011;47353;51.614;5.530;2024-03-07T12:20:34;21.63;;;15.63;;
59788;SDS011;47353;51.614;5.530;2024-03-07T12:23:03;25.63;;;17.25;;
59788;SDS011;47353;51.614;5.530;2024-03-07T12:25:32;22.33;;;15.70;;
59788;SDS011;47353;51.614;5.530;2024-03-07T12:28:09;24.05;;;16.73;;
59788;SDS011;47353;51.614;5.530;2024-03-07T12:30:38;22.55;;;15.98;;
59788;SDS011;47353;51.614;5.530;2024-03-07T12:33:12;23.60;;;16.50;;
59788;SDS011;47353;51.614;5.530;2024-03-07T12:35:48;21.80;;;15.95;;
59788;SDS011;47353;51.614;5.530;2024-03-07T12:38:17;21.27;;;15.65;;
59788;SDS011;47353;51.614;5.530;2024-03-07T12:40:44;21.40;;;15.80;;
59788;SDS011;47353;51.614;5.530;2024-03-07T12:45:50;21.23;;;14.70;;
59788;SDS011;47353;51.614;5.530;2024-03-07T12:48:16;21.50;;;16.15;;
59788;SDS011;47353;51.614;5.530;2024-03-07T12:50:46;18.20;;;13.80;;
59788;SDS011;47353;51.614;5.530;2024-03-07T12:53:21;18.20;;;13.55;;
59788;SDS011;47353;51.614;5.530;2024-03-07T12:55:49;19.05;;;14.18;;
59788;SDS011;47353;51.614;5.530;2024-03-07T12:58:14;17.55;;;13.73;;
59788;SDS011;47353;51.614;5.530;2024-03-07T13:00:40;18.73;;;14.60;;
59788;SDS011;47353;51.614;5.530;2024-03-07T13:03:06;20.02;;;14.70;;
59788;SDS011;47353;51.614;5.530;2024-03-07T13:05:37;18.98;;;14.23;;
59788;SDS011;47353;51.614;5.530;2024-03-07T13:08:08;17.83;;;14.13;;
59788;SDS011;47353;51.614;5.530;2024-03-07T13:10:37;18.73;;;14.18;;
59788;SDS011;47353;51.614;5.530;2024-03-07T13:13:11;19.27;;;14.45;;
59788;SDS011;47353;51.614;5.530;2024-03-07T13:15:37;17.10;;;14.13;;
59788;SDS011;47353;51.614;5.530;2024-03-07T13:18:04;19.38;;;15.35;;
59788;SDS011;47353;51.614;5.530;2024-03-07T13:20:30;23.58;;;15.70;;
59788;SDS011;47353;51.614;5.530;2024-03-07T13:22:56;21.30;;;15.60;;
59788;SDS011;47353;51.614;5.530;2024-03-07T13:25:25;21.95;;;15.93;;
59788;SDS011;47353;51.614;5.530;2024-03-07T13:27:59;20.88;;;16.30;;
59788;SDS011;47353;51.614;5.530;2024-03-07T13:30:28;19.98;;;15.27;;
59788;SDS011;47353;51.614;5.530;2024-03-07T13:32:54;19.23;;;14.68;;
59788;SDS011;47353;51.614;5.530;2024-03-07T13:35:20;20.58;;;16.60;;
59788;SDS011;47353;51.614;5.530;2024-03-07T13:37:49;20.15;;;15.75;;
59788;SDS011;47353;51.614;5.530;2024-03-07T13:40:15;20.08;;;15.57;;
59788;SDS011;47353;51.614;5.530;2024-03-07T13:42:51;18.98;;;14.45;;
59788;SDS011;47353;51.614;5.530;2024-03-07T13:45:25;21.80;;;15.57;;
59788;SDS011;47353;51.614;5.530;2024-03-07T13:50:42;20.92;;;16.45;;
59788;SDS011;47353;51.614;5.530;2024-03-07T13:53:13;20.80;;;16.38;;
59788;SDS011;47353;51.614;5.530;2024-03-07T14:24:49;22.10;;;16.83;;
59788;SDS011;47353;51.614;5.530;2024-03-07T14:30:09;21.52;;;17.17;;
59788;SDS011;47353;51.614;5.530;2024-03-07T14:32:38;21.52;;;16.77;;
59788;SDS011;47353;51.614;5.530;2024-03-07T14:35:09;24.98;;;17.83;;
59788;SDS011;47353;51.614;5.530;2024-03-07T14:40:39;22.60;;;16.67;;
59788;SDS011;47353;51.614;5.530;2024-03-07T14:43:04;25.23;;;18.75;;
59788;SDS011;47353;51.614;5.530;2024-03-07T14:45:38;22.52;;;17.60;;
59788;SDS011;47353;51.614;5.530;2024-03-07T14:48:05;24.30;;;17.90;;
59788;SDS011;47353;51.614;5.530;2024-03-07T14:50:35;21.38;;;16.88;;
59788;SDS011;47353;51.614;5.530;2024-03-07T14:53:02;23.10;;;18.27;;
59788;SDS011;47353;51.614;5.530;2024-03-07T14:55:29;22.67;;;18.15;;
59788;SDS011;47353;51.614;5.530;2024-03-07T14:57:55;24.63;;;17.90;;
59788;SDS011;47353;51.614;5.530;2024-03-07T15:00:21;23.13;;;18.15;;
59788;SDS011;47353;51.614;5.530;2024-03-07T15:02:52;23.38;;;18.40;;
59788;SDS011;47353;51.614;5.530;2024-03-07T15:05:24;25.77;;;18.52;;
59788;SDS011;47353;51.614;5.530;2024-03-07T15:07:51;25.23;;;18.30;;
59788;SDS011;47353;51.614;5.530;2024-03-07T15:13:23;21.73;;;16.60;;
59788;SDS011;47353;51.614;5.530;2024-03-07T15:15:48;23.60;;;18.50;;
59788;SDS011;47353;51.614;5.530;2024-03-07T15:18:14;23.60;;;18.60;;
59788;SDS011;47353;51.614;5.530;2024-03-07T15:20:39;23.33;;;18.02;;
59788;SDS011;47353;51.614;5.530;2024-03-07T15:23:06;20.42;;;16.55;;
59788;SDS011;47353;51.614;5.530;2024-03-07T15:25:32;21.65;;;17.67;;